Time;durP1;ratioP1;P1;durP2;ratioP2;P2;SDS_P1;SDS_P2;PMS_P1;PMS_P2;Temp;Humidity;BMP_temperature;BMP_pressure;BME280_temperature;BME280_humidity;BME280_pressure;Samples;Min_cycle;Max_cycle;Signal;HPM_P1;HPM_P2
2023/08/07 00:00:41;;;;;;;3.00;1.20;;;21.30;73.80;;;;;;5052443;28;20128;-65
2023/08/07 00:03:06;;;;;;;3.13;1.00;;;21.30;73.80;;;;;;5071471;28;20510;-65
2023/08/07 00:05:32;;;;;;;2.05;1.00;;;21.20;73.80;;;;;;5073280;28;20090;-66
2023/08/07 00:07:57;;;;;;;1.92;0.90;;;21.30;73.80;;;;;;5072561;28;20041;-65
2023/08/07 00:10:24;;;;;;;3.15;1.05;;;21.20;73.70;;;;;;5072665;28;20380;-66
2023/08/07 00:12:49;;;;;;;2.42;1.20;;;21.30;73.80;;;;;;5071588;28;20048;-66
2023/08/07 00:15:15;;;;;;;2.08;0.80;;;21.30;73.80;;;;;;5072042;28;20438;-65
2023/08/07 00:17:41;;;;;;;2.90;1.10;;;21.20;73.70;;;;;;5071401;28;20101;-65
2023/08/07 00:20:07;;;;;;;2.22;1.05;;;21.20;73.70;;;;;;5072793;28;20053;-66
2023/08/07 00:22:33;;;;;;;2.78;1.27;;;21.20;73.70;;;;;;5071999;28;20048;-65
2023/08/07 00:24:58;;;;;;;1.58;0.90;;;21.20;73.70;;;;;;5073129;28;20115;-65
2023/08/07 00:27:24;;;;;;;3.38;1.10;;;21.20;73.70;;;;;;5072549;28;20499;-65
2023/08/07 00:29:50;;;;;;;3.13;1.20;;;21.20;73.70;;;;;;5068113;28;20047;-65
2023/08/07 00:32:15;;;;;;;2.17;0.82;;;21.20;73.70;;;;;;5072542;28;20143;-65
2023/08/07 00:34:41;;;;;;;2.92;1.00;;;21.20;73.60;;;;;;5072514;28;20472;-66
2023/08/07 00:37:06;;;;;;;1.65;1.02;;;21.20;73.60;;;;;;5071745;28;20041;-65
2023/08/07 00:39:32;;;;;;;2.40;1.02;;;21.20;73.60;;;;;;5072478;28;20037;-65
2023/08/07 00:41:57;;;;;;;3.45;1.08;;;21.20;73.60;;;;;;5072483;28;20037;-66
2023/08/07 00:44:23;;;;;;;2.67;1.15;;;21.20;73.60;;;;;;5072208;28;20051;-66
2023/08/07 00:46:49;;;;;;;2.53;1.38;;;21.20;73.60;;;;;;5072248;28;20037;-66
2023/08/07 00:49:14;;;;;;;2.92;1.05;;;21.20;73.60;;;;;;5072639;28;20373;-65
2023/08/07 00:51:40;;;;;;;1.55;0.93;;;21.20;73.60;;;;;;5033190;28;20108;-67
2023/08/07 00:54:06;;;;;;;1.50;0.98;;;21.20;73.50;;;;;;5052606;28;20106;-66
2023/08/07 00:56:32;;;;;;;2.83;0.85;;;21.20;73.50;;;;;;5054255;28;20048;-65
2023/08/07 00:58:58;;;;;;;2.55;1.08;;;21.20;73.50;;;;;;5070159;28;20048;-66
2023/08/07 01:01:24;;;;;;;2.28;0.80;;;21.20;73.60;;;;;;5072184;28;20090;-65
2023/08/07 01:03:49;;;;;;;2.53;1.10;;;21.20;73.50;;;;;;5072155;28;20041;-66
2023/08/07 01:06:15;;;;;;;2.20;1.00;;;21.20;73.50;;;;;;5071528;28;20056;-65
2023/08/07 01:08:41;;;;;;;1.85;0.90;;;21.20;73.60;;;;;;5052015;28;20036;-65
2023/08/07 01:11:09;;;;;;;1.70;0.80;;;21.20;73.50;;;;;;5055157;28;20059;-65
2023/08/07 01:13:40;;;;;;;2.03;1.00;;;21.20;73.50;;;;;;5074465;28;20208;-66
2023/08/07 01:16:10;;;;;;;3.65;1.10;;;21.10;73.50;;;;;;5075303;28;20052;-65
2023/08/07 01:18:36;;;;;;;2.08;1.00;;;21.20;73.50;;;;;;5037080;28;20052;-65
2023/08/07 01:21:03;;;;;;;1.95;0.93;;;21.10;73.50;;;;;;5055388;28;20037;-65
2023/08/07 01:23:28;;;;;;;2.03;0.88;;;21.10;73.40;;;;;;5072182;28;20491;-65
2023/08/07 01:25:54;;;;;;;1.83;0.98;;;21.10;73.40;;;;;;5075340;28;20040;-65
2023/08/07 01:28:31;;;;;;;3.13;1.30;;;21.10;73.40;;;;;;5075760;28;20068;-65
2023/08/07 01:30:59;;;;;;;1.70;0.80;;;21.10;73.50;;;;;;5041940;28;20060;-65
2023/08/07 01:33:32;;;;;;;1.73;0.77;;;21.10;73.50;;;;;;5057190;28;20055;-65
2023/08/07 01:35:58;;;;;;;1.40;0.90;;;21.10;73.40;;;;;;5040892;28;20072;-65
2023/08/07 01:38:25;;;;;;;2.42;1.30;;;21.10;73.50;;;;;;5074540;28;20496;-67
2023/08/07 01:40:50;;;;;;;1.92;0.90;;;21.10;73.40;;;;;;5040643;28;20044;-66
2023/08/07 01:43:16;;;;;;;3.15;0.93;;;21.10;73.50;;;;;;5054818;28;20392;-65
2023/08/07 01:45:42;;;;;;;1.63;0.95;;;21.10;73.50;;;;;;5055508;28;20047;-65
2023/08/07 01:48:07;;;;;;;3.50;1.00;;;21.10;73.40;;;;;;5067093;28;20165;-66
2023/08/07 01:50:33;;;;;;;1.88;0.80;;;21.10;73.40;;;;;;5076175;28;20551;-66
2023/08/07 01:53:00;;;;;;;1.58;0.90;;;21.10;73.40;;;;;;5057507;28;20049;-65
2023/08/07 01:55:25;;;;;;;2.00;0.90;;;21.00;73.40;;;;;;5075158;28;20072;-65
2023/08/07 01:57:51;;;;;;;1.50;0.95;;;21.00;73.30;;;;;;5075366;28;20137;-65
2023/08/07 02:00:17;;;;;;;1.80;0.80;;;21.00;73.40;;;;;;5073986;28;20068;-65
2023/08/07 02:02:44;;;;;;;1.98;1.02;;;21.10;73.40;;;;;;5062685;28;20045;-65
2023/08/07 02:05:10;;;;;;;1.60;0.93;;;21.00;73.30;;;;;;5074805;28;20119;-65
2023/08/07 02:07:35;;;;;;;2.75;0.98;;;21.10;73.40;;;;;;5073588;28;20132;-65
2023/08/07 02:10:01;;;;;;;2.05;0.80;;;21.10;73.40;;;;;;5073308;28;20480;-66
2023/08/07 02:12:27;;;;;;;1.48;0.90;;;21.00;73.30;;;;;;5075008;28;20044;-66
2023/08/07 02:14:53;;;;;;;2.58;0.93;;;21.00;73.30;;;;;;5073671;28;20050;-65
2023/08/07 02:17:21;;;;;;;2.13;0.90;;;21.00;73.30;;;;;;5075283;28;20090;-65
2023/08/07 02:19:46;;;;;;;1.55;0.80;;;21.10;73.30;;;;;;5072571;28;20514;-65
2023/08/07 02:22:12;;;;;;;1.73;0.98;;;21.10;73.30;;;;;;5074120;28;20141;-65
2023/08/07 02:24:37;;;;;;;2.88;1.00;;;21.00;73.30;;;;;;5074498;28;20056;-65
2023/08/07 02:27:03;;;;;;;1.50;0.85;;;21.00;73.30;;;;;;5073698;28;20490;-65
2023/08/07 02:29:29;;;;;;;2.15;0.88;;;21.00;73.20;;;;;;5074065;28;20041;-65
2023/08/07 02:31:55;;;;;;;3.00;1.05;;;21.00;73.30;;;;;;5074121;28;20136;-65
2023/08/07 02:34:21;;;;;;;1.95;0.98;;;21.00;73.20;;;;;;5075074;28;20119;-65
2023/08/07 02:36:46;;;;;;;1.40;0.70;;;21.00;73.20;;;;;;5074139;28;20044;-65
2023/08/07 02:39:13;;;;;;;1.88;0.90;;;21.00;73.20;;;;;;5074899;28;20041;-65
2023/08/07 02:41:39;;;;;;;1.58;0.90;;;21.00;73.20;;;;;;5073391;28;20040;-65
2023/08/07 02:44:05;;;;;;;1.90;0.80;;;21.00;73.20;;;;;;5074010;28;20055;-65
2023/08/07 02:46:30;;;;;;;2.00;0.85;;;21.00;73.20;;;;;;5074681;28;20040;-65
2023/08/07 02:48:56;;;;;;;1.65;0.80;;;21.00;73.20;;;;;;5074390;28;20480;-65
2023/08/07 02:51:21;;;;;;;1.67;0.80;;;21.00;73.20;;;;;;5074049;28;20128;-65
2023/08/07 02:53:47;;;;;;;1.20;0.88;;;21.00;73.20;;;;;;5072877;28;20045;-65
2023/08/07 02:56:12;;;;;;;1.20;0.80;;;21.00;73.20;;;;;;5074964;28;20040;-65
2023/08/07 02:58:38;;;;;;;2.22;1.02;;;21.00;73.20;;;;;;5071795;28;20045;-65
2023/08/07 03:01:05;;;;;;;2.58;1.00;;;21.00;73.20;;;;;;5074513;28;20041;-65
2023/08/07 03:03:31;;;;;;;1.65;0.80;;;21.00;73.20;;;;;;5074387;28;20040;-65
2023/08/07 03:05:57;;;;;;;2.38;0.80;;;21.00;73.20;;;;;;5071917;28;20033;-65
2023/08/07 03:08:22;;;;;;;1.13;0.60;;;20.90;73.10;;;;;;5072969;28;20126;-65
2023/08/07 03:10:52;;;;;;;1.58;0.88;;;20.90;73.10;;;;;;5074088;28;20490;-65
2023/08/07 03:13:18;;;;;;;2.30;1.02;;;20.90;73.10;;;;;;5073678;28;20388;-65
2023/08/07 03:15:43;;;;;;;2.97;1.15;;;20.90;73.70;;;;;;5073918;28;20035;-65
2023/08/07 03:18:09;;;;;;;1.30;0.90;;;20.90;73.10;;;;;;5073427;28;20579;-65
2023/08/07 03:20:37;;;;;;;2.15;0.93;;;20.90;73.10;;;;;;5074021;28;20048;-65
2023/08/07 03:23:02;;;;;;;3.17;0.88;;;20.90;73.00;;;;;;5073947;28;20071;-65
2023/08/07 03:25:28;;;;;;;2.97;0.90;;;20.90;73.10;;;;;;5073651;28;20076;-65
2023/08/07 03:27:54;;;;;;;2.17;0.85;;;20.90;73.00;;;;;;5073329;28;20082;-65
2023/08/07 03:30:19;;;;;;;1.58;0.77;;;20.90;73.00;;;;;;5073912;28;20048;-65
2023/08/07 03:32:45;;;;;;;1.88;0.90;;;20.90;73.00;;;;;;5070908;28;20045;-65
2023/08/07 03:35:10;;;;;;;3.15;1.05;;;20.90;73.00;;;;;;5074002;28;20044;-65
2023/08/07 03:37:36;;;;;;;1.83;0.82;;;20.90;73.00;;;;;;5073272;28;20067;-65
2023/08/07 03:40:02;;;;;;;1.77;0.95;;;20.90;73.00;;;;;;5071502;28;20135;-65
2023/08/07 03:42:28;;;;;;;2.00;0.80;;;20.90;73.00;;;;;;5073702;28;20056;-65
2023/08/07 03:44:53;;;;;;;3.47;0.82;;;20.90;73.00;;;;;;5071936;28;20052;-65
2023/08/07 03:47:19;;;;;;;2.85;0.90;;;20.90;73.00;;;;;;5073026;28;20544;-65
2023/08/07 03:49:44;;;;;;;1.60;0.80;;;20.90;73.00;;;;;;5073259;28;20047;-65
2023/08/07 03:52:10;;;;;;;2.35;0.90;;;20.90;73.00;;;;;;5072476;28;20036;-66
2023/08/07 03:54:36;;;;;;;2.08;1.00;;;20.90;73.00;;;;;;5070971;28;20078;-65
2023/08/07 03:57:02;;;;;;;2.20;0.70;;;20.90;73.00;;;;;;5073622;28;20055;-65
2023/08/07 03:59:28;;;;;;;3.00;0.70;;;20.80;72.90;;;;;;5073261;28;20048;-65
2023/08/07 04:01:53;;;;;;;3.90;1.00;;;20.80;72.90;;;;;;5062564;28;20412;-65
2023/08/07 04:04:19;;;;;;;3.00;0.98;;;20.90;72.90;;;;;;5069579;28;20040;-65
2023/08/07 04:06:44;;;;;;;3.95;1.17;;;20.90;72.90;;;;;;5072855;28;20401;-65
2023/08/07 04:09:10;;;;;;;2.47;0.70;;;20.90;72.90;;;;;;5072338;28;20095;-65
2023/08/07 04:11:36;;;;;;;3.22;0.90;;;20.90;72.90;;;;;;5072766;28;20411;-65
2023/08/07 04:14:02;;;;;;;2.50;0.88;;;20.80;72.80;;;;;;5073038;28;20048;-65
2023/08/07 04:16:27;;;;;;;1.38;0.70;;;20.90;72.90;;;;;;5071980;28;20492;-65
2023/08/07 04:18:53;;;;;;;3.20;0.80;;;20.90;72.90;;;;;;5072746;28;20159;-65
2023/08/07 04:21:18;;;;;;;2.10;0.70;;;20.80;72.80;;;;;;5072032;28;20048;-65
2023/08/07 04:23:44;;;;;;;1.40;0.80;;;20.80;72.80;;;;;;5072770;28;20123;-65
2023/08/07 04:26:09;;;;;;;3.13;1.00;;;20.80;72.80;;;;;;5072617;28;20384;-65
2023/08/07 04:28:35;;;;;;;2.75;0.93;;;20.80;72.80;;;;;;5071263;28;20882;-65
2023/08/07 04:31:00;;;;;;;1.90;0.75;;;20.80;72.80;;;;;;5072638;28;20494;-65
2023/08/07 04:33:26;;;;;;;1.80;0.73;;;20.80;72.80;;;;;;5072830;28;20051;-65
2023/08/07 04:35:52;;;;;;;2.83;0.90;;;20.80;72.80;;;;;;5071557;28;20090;-65
2023/08/07 04:38:17;;;;;;;3.22;0.95;;;20.80;72.80;;;;;;5071271;28;20032;-65
2023/08/07 04:40:47;;;;;;;2.70;0.90;;;20.80;72.80;;;;;;5072415;28;20040;-65
2023/08/07 04:43:13;;;;;;;2.00;0.80;;;20.80;72.80;;;;;;5071320;28;20097;-65
2023/08/07 04:45:39;;;;;;;2.65;0.75;;;20.80;72.80;;;;;;5072370;28;20119;-65
2023/08/07 04:48:06;;;;;;;2.88;0.95;;;20.80;72.80;;;;;;5072373;28;20036;-65
2023/08/07 04:50:32;;;;;;;2.53;0.93;;;20.80;72.80;;;;;;5071987;28;20040;-65
2023/08/07 04:52:57;;;;;;;2.35;0.68;;;20.80;72.70;;;;;;5070761;28;20404;-65
2023/08/07 04:55:23;;;;;;;2.88;0.80;;;20.80;72.80;;;;;;5072386;28;20051;-65
2023/08/07 04:57:50;;;;;;;3.40;1.20;;;20.80;72.70;;;;;;5071173;28;20048;-65
2023/08/07 05:00:17;;;;;;;3.20;0.93;;;20.80;72.70;;;;;;5052415;28;20052;-66
2023/08/07 05:02:43;;;;;;;2.70;0.90;;;20.80;72.70;;;;;;5052190;28;20111;-66
2023/08/07 05:05:09;;;;;;;1.98;0.90;;;20.80;72.70;;;;;;5070689;28;20036;-66
2023/08/07 05:07:35;;;;;;;3.58;0.90;;;20.80;72.70;;;;;;5070843;28;20048;-65
2023/08/07 05:10:02;;;;;;;3.40;1.00;;;20.80;72.70;;;;;;5072499;28;20041;-66
2023/08/07 05:12:27;;;;;;;2.97;0.90;;;20.80;72.70;;;;;;5071854;28;20092;-65
2023/08/07 05:14:53;;;;;;;3.90;1.00;;;20.80;72.70;;;;;;5072105;28;20567;-66
2023/08/07 05:17:19;;;;;;;3.63;0.90;;;20.80;72.70;;;;;;5072424;28;20047;-66
2023/08/07 05:19:44;;;;;;;4.88;0.95;;;20.80;72.70;;;;;;5071223;28;20057;-66
2023/08/07 05:22:10;;;;;;;2.85;0.88;;;20.80;72.70;;;;;;5072466;28;20392;-66
2023/08/07 05:24:38;;;;;;;3.03;0.98;;;20.80;72.70;;;;;;5071235;28;20097;-67
2023/08/07 05:27:13;;;;;;;1.67;0.68;;;20.80;72.70;;;;;;5072371;28;20044;-65
2023/08/07 05:29:45;;;;;;;4.10;0.80;;;20.80;72.70;;;;;;5071930;28;20048;-66
2023/08/07 05:32:14;;;;;;;2.38;0.93;;;20.80;72.70;;;;;;5071228;28;20121;-65
2023/08/07 05:34:40;;;;;;;3.03;0.98;;;20.80;72.70;;;;;;5071977;28;20084;-65
2023/08/07 05:37:06;;;;;;;1.60;0.80;;;20.80;72.70;;;;;;5072339;28;20069;-65
2023/08/07 05:39:32;;;;;;;2.72;0.77;;;20.80;72.70;;;;;;5071474;28;20549;-65
2023/08/07 05:41:57;;;;;;;1.88;0.60;;;20.80;72.70;;;;;;5071865;28;20085;-66
2023/08/07 05:44:24;;;;;;;2.03;0.77;;;20.80;72.70;;;;;;5072294;28;20044;-65
2023/08/07 05:46:49;;;;;;;2.17;0.80;;;20.80;72.70;;;;;;5071019;28;20036;-66
2023/08/07 05:49:15;;;;;;;2.67;0.70;;;20.80;72.80;;;;;;5070693;28;20093;-66
2023/08/07 05:51:41;;;;;;;3.50;0.70;;;20.80;72.80;;;;;;5071890;28;20041;-66
2023/08/07 05:54:07;;;;;;;2.50;0.95;;;20.70;72.70;;;;;;5071074;28;20040;-66
2023/08/07 05:56:32;;;;;;;3.05;1.20;;;20.80;72.80;;;;;;5076014;28;20044;-65
2023/08/07 05:58:58;;;;;;;2.70;1.00;;;20.80;72.80;;;;;;5075192;28;20041;-66
2023/08/07 06:01:29;;;;;;;1.92;0.70;;;20.70;72.80;;;;;;5074535;28;20048;-66
2023/08/07 06:03:54;;;;;;;3.33;0.80;;;20.80;72.90;;;;;;5075288;28;20407;-64
2023/08/07 06:06:20;;;;;;;2.67;0.80;;;20.80;72.80;;;;;;5073745;28;20044;-61
2023/08/07 06:08:46;;;;;;;3.22;0.90;;;20.80;72.80;;;;;;5074357;28;20107;-67
2023/08/07 06:11:12;;;;;;;2.58;1.00;;;20.70;72.80;;;;;;5074425;28;20372;-66
2023/08/07 06:13:37;;;;;;;2.53;0.80;;;20.70;72.80;;;;;;5074676;28;20137;-67
2023/08/07 06:16:03;;;;;;;4.22;1.00;;;20.70;72.80;;;;;;5072907;28;20044;-64
2023/08/07 06:18:29;;;;;;;4.90;1.30;;;20.80;72.90;;;;;;5074066;28;20047;-63
2023/08/07 06:20:56;;;;;;;4.20;1.15;;;20.80;73.00;;;;;;5072897;28;20098;-63
2023/08/07 06:23:21;;;;;;;3.90;1.10;;;20.80;73.20;;;;;;5075504;28;20037;-64
2023/08/07 06:25:47;;;;;;;4.68;1.20;;;20.80;73.30;;;;;;5074756;28;20044;-62
2023/08/07 06:28:12;;;;;;;2.28;0.98;;;20.80;73.20;;;;;;5074307;28;20119;-62
2023/08/07 06:30:38;;;;;;;4.90;1.10;;;20.80;73.20;;;;;;5074217;28;20040;-60
2023/08/07 06:33:04;;;;;;;6.15;1.00;;;20.80;73.20;;;;;;5074512;28;20043;-63
2023/08/07 06:35:29;;;;;;;7.57;1.52;;;20.80;73.20;;;;;;5073789;28;20068;-64
2023/08/07 06:37:55;;;;;;;6.75;1.23;;;20.80;73.20;;;;;;5073269;28;20128;-64
2023/08/07 06:40:21;;;;;;;5.05;1.27;;;20.80;73.30;;;;;;5073403;28;20044;-63
2023/08/07 06:42:46;;;;;;;5.80;1.27;;;20.80;73.40;;;;;;5074002;28;20044;-63
2023/08/07 06:45:12;;;;;;;6.78;1.40;;;20.90;73.40;;;;;;5074460;28;20063;-63
2023/08/07 06:47:38;;;;;;;4.05;1.10;;;20.90;73.50;;;;;;5073156;28;20140;-64
2023/08/07 06:50:03;;;;;;;5.78;1.35;;;20.90;73.60;;;;;;5072238;28;20052;-63
2023/08/07 06:52:29;;;;;;;4.47;1.42;;;20.90;73.60;;;;;;5074831;28;20124;-64
2023/08/07 06:54:55;;;;;;;6.78;1.38;;;20.90;73.60;;;;;;5074365;28;20048;-64
2023/08/07 06:57:20;;;;;;;7.25;1.00;;;20.90;73.80;;;;;;5074026;28;20040;-64
2023/08/07 06:59:46;;;;;;;4.80;1.08;;;20.90;73.70;;;;;;5073599;28;20098;-63
2023/08/07 07:02:12;;;;;;;6.35;0.82;;;20.90;73.80;;;;;;5074428;28;20161;-63
2023/08/07 07:04:38;;;;;;;3.53;0.85;;;20.90;73.80;;;;;;5072854;28;20526;-63
2023/08/07 07:07:03;;;;;;;4.63;0.98;;;21.00;73.80;;;;;;5073666;28;20048;-64
2023/08/07 07:09:29;;;;;;;4.13;1.00;;;21.00;73.80;;;;;;5074263;28;20055;-62
2023/08/07 07:11:55;;;;;;;4.30;1.15;;;21.00;73.80;;;;;;5073294;28;20557;-64
2023/08/07 07:14:21;;;;;;;2.72;1.17;;;21.00;73.70;;;;;;5073424;28;20052;-63
2023/08/07 07:16:47;;;;;;;5.10;1.40;;;21.00;73.70;;;;;;5072042;28;20044;-63
2023/08/07 07:19:12;;;;;;;5.65;1.40;;;21.00;73.70;;;;;;5072837;28;20041;-64
2023/08/07 07:21:38;;;;;;;3.75;1.40;;;21.00;73.70;;;;;;5073806;28;20079;-65
2023/08/07 07:24:04;;;;;;;6.18;1.30;;;21.00;73.70;;;;;;5073971;28;20048;-63
2023/08/07 07:26:30;;;;;;;4.00;1.02;;;21.00;73.70;;;;;;5072266;28;20083;-63
2023/08/07 07:28:56;;;;;;;3.58;1.08;;;21.10;73.80;;;;;;5072196;28;20434;-64
2023/08/07 07:31:22;;;;;;;4.00;0.95;;;21.00;73.70;;;;;;5072645;28;20496;-64
2023/08/07 07:33:47;;;;;;;4.13;1.05;;;21.10;73.80;;;;;;5073370;28;20502;-63
2023/08/07 07:36:18;;;;;;;5.50;1.40;;;21.10;73.80;;;;;;5072106;28;20377;-63
2023/08/07 07:38:46;;;;;;;5.32;1.20;;;21.10;73.80;;;;;;5070059;28;20051;-62
2023/08/07 07:41:11;;;;;;;4.43;1.30;;;21.10;73.80;;;;;;5072441;28;20048;-63
2023/08/07 07:43:37;;;;;;;5.95;1.20;;;21.10;73.80;;;;;;5073122;28;20120;-64
2023/08/07 07:46:03;;;;;;;7.07;1.65;;;21.10;73.80;;;;;;5071282;28;20392;-64
2023/08/07 07:48:28;;;;;;;4.13;1.35;;;21.20;73.80;;;;;;5071929;28;20068;-63
2023/08/07 07:51:01;;;;;;;4.70;1.40;;;21.10;73.80;;;;;;5071345;28;20044;-63
2023/08/07 07:53:27;;;;;;;5.10;1.20;;;21.10;73.80;;;;;;5072646;28;20053;-64
2023/08/07 07:55:52;;;;;;;5.88;1.45;;;21.20;73.70;;;;;;5071952;28;20400;-65
2023/08/07 07:58:20;;;;;;;5.85;1.33;;;21.20;73.60;;;;;;5071725;28;20460;-61
2023/08/07 08:00:45;;;;;;;11.32;1.40;;;21.20;73.50;;;;;;5071043;28;20068;-65
2023/08/07 08:03:12;;;;;;;5.78;1.55;;;21.20;73.50;;;;;;5072019;28;20044;-64
2023/08/07 08:05:38;;;;;;;5.32;1.30;;;21.20;73.50;;;;;;5072640;28;20545;-64
2023/08/07 08:08:04;;;;;;;9.38;1.55;;;21.20;73.50;;;;;;5072511;28;20045;-64
2023/08/07 08:10:30;;;;;;;6.28;1.27;;;21.30;73.50;;;;;;5071719;28;20055;-64
2023/08/07 08:12:56;;;;;;;3.75;1.20;;;21.30;73.40;;;;;;5072949;28;20040;-64
2023/08/07 08:15:21;;;;;;;4.45;1.38;;;21.30;73.50;;;;;;5071619;28;20049;-66
2023/08/07 08:17:48;;;;;;;4.90;1.33;;;21.30;73.40;;;;;;5072871;28;20036;-63
2023/08/07 08:20:18;;;;;;;3.60;1.20;;;21.30;73.30;;;;;;5072671;28;20083;-65
2023/08/07 08:22:44;;;;;;;4.53;1.33;;;21.40;73.40;;;;;;5071832;28;20051;-64
2023/08/07 08:25:11;;;;;;;9.45;1.50;;;21.40;73.30;;;;;;5072933;28;20033;-65
2023/08/07 08:27:37;;;;;;;8.88;1.25;;;21.40;73.10;;;;;;5072773;28;20500;-64
2023/08/07 08:30:03;;;;;;;6.30;1.15;;;21.40;73.00;;;;;;5072547;28;20036;-64
2023/08/07 08:32:29;;;;;;;4.85;1.42;;;21.40;72.90;;;;;;5072697;28;20072;-64
2023/08/07 08:34:55;;;;;;;4.70;1.25;;;21.40;72.90;;;;;;5071608;28;20091;-64
2023/08/07 08:37:21;;;;;;;6.45;1.27;;;21.40;72.80;;;;;;5072897;28;20040;-66
2023/08/07 08:39:46;;;;;;;4.80;1.50;;;21.40;72.80;;;;;;5072223;28;20051;-65
2023/08/07 08:42:15;;;;;;;8.07;1.63;;;21.40;72.80;;;;;;5071508;28;20040;-64
2023/08/07 08:44:41;;;;;;;8.27;1.23;;;21.40;72.70;;;;;;5071980;28;20041;-64
2023/08/07 08:47:07;;;;;;;6.90;1.60;;;21.40;72.70;;;;;;5053798;28;20063;-65
2023/08/07 08:49:35;;;;;;;4.10;1.38;;;21.50;72.70;;;;;;5070191;28;20078;-65
2023/08/07 08:52:01;;;;;;;;;;;21.50;72.70;;;;;;5055739;28;20041;-61
2023/08/07 08:54:26;;;;;;;7.50;1.38;;;21.50;72.60;;;;;;5070695;28;19931;-66
2023/08/07 08:56:54;;;;;;;5.82;1.33;;;21.50;72.60;;;;;;5075905;28;20040;-65
2023/08/07 08:59:21;;;;;;;5.68;1.40;;;21.50;72.60;;;;;;5063115;28;20043;-66
2023/08/07 09:01:47;;;;;;;5.65;1.33;;;21.50;72.60;;;;;;5061567;28;20096;-65
2023/08/07 09:04:12;;;;;;;5.75;1.63;;;21.50;72.50;;;;;;5070484;28;20048;-65
2023/08/07 09:06:38;;;;;;;5.03;1.35;;;21.50;72.50;;;;;;5070593;28;20041;-65
2023/08/07 09:09:03;;;;;;;8.05;1.30;;;21.50;72.50;;;;;;5071276;28;20040;-65
2023/08/07 09:11:29;;;;;;;4.82;1.30;;;21.50;72.40;;;;;;5070533;28;20076;-65
2023/08/07 09:13:55;;;;;;;6.18;1.40;;;21.40;72.30;;;;;;5054163;28;20809;-66
2023/08/07 09:16:22;;;;;;;7.65;1.58;;;21.50;72.30;;;;;;5034529;28;20052;-66
2023/08/07 09:18:50;;;;;;;4.93;1.25;;;21.50;72.30;;;;;;5033534;28;20041;-67
2023/08/07 09:21:16;;;;;;;7.70;1.57;;;21.40;72.30;;;;;;5066611;28;20053;-67
2023/08/07 09:23:42;;;;;;;7.38;1.42;;;21.40;72.30;;;;;;5053144;28;20060;-67
2023/08/07 09:26:08;;;;;;;7.55;1.70;;;21.50;72.30;;;;;;5070851;28;20042;-67
2023/08/07 09:28:34;;;;;;;4.97;1.13;;;21.50;72.30;;;;;;5070904;28;20047;-67
2023/08/07 09:31:01;;;;;;;5.65;1.50;;;21.50;72.30;;;;;;5052958;28;20084;-67
2023/08/07 09:33:27;;;;;;;6.20;1.40;;;21.50;72.30;;;;;;5056106;28;20492;-67
2023/08/07 09:35:56;;;;;;;3.22;1.15;;;21.50;72.30;;;;;;5064687;28;20055;-65
2023/08/07 09:38:22;;;;;;;4.00;1.48;;;21.50;72.20;;;;;;5074290;28;20044;-67
2023/08/07 09:40:49;;;;;;;9.80;1.73;;;21.50;72.20;;;;;;5075462;28;20048;-66
2023/08/07 09:43:21;;;;;;;9.30;1.55;;;21.50;72.10;;;;;;5073576;28;20040;-66
2023/08/07 09:45:46;;;;;;;6.10;1.50;;;21.50;72.10;;;;;;5072557;28;20532;-66
2023/08/07 09:48:12;;;;;;;5.90;1.65;;;21.50;72.00;;;;;;5075171;28;20029;-66
2023/08/07 09:50:38;;;;;;;9.45;1.70;;;21.50;72.00;;;;;;5057159;28;20039;-66
2023/08/07 09:53:04;;;;;;;5.85;1.70;;;21.60;72.00;;;;;;5074491;28;20404;-66
2023/08/07 09:55:31;;;;;;;6.80;1.83;;;21.60;72.00;;;;;;5075050;28;20079;-64
2023/08/07 09:57:56;;;;;;;8.20;1.80;;;21.60;71.90;;;;;;5075235;28;20041;-64
2023/08/07 10:00:22;;;;;;;6.70;1.55;;;21.60;71.80;;;;;;5072975;28;20522;-65
2023/08/07 10:02:49;;;;;;;6.32;1.80;;;21.60;72.40;;;;;;5075065;28;20032;-65
2023/08/07 10:05:14;;;;;;;7.20;1.70;;;21.60;71.80;;;;;;5073946;28;20055;-64
2023/08/07 10:07:40;;;;;;;9.10;1.92;;;21.60;71.80;;;;;;5072352;28;20503;-60
2023/08/07 10:10:09;;;;;;;8.35;1.83;;;21.60;71.50;;;;;;5074642;28;20098;-59
2023/08/07 10:12:35;;;;;;;6.93;1.90;;;21.60;71.50;;;;;;5074972;28;20098;-59
2023/08/07 10:15:01;;;;;;;8.60;2.20;;;21.60;71.30;;;;;;5072875;28;20041;-61
2023/08/07 10:17:27;;;;;;;8.10;1.80;;;21.70;71.30;;;;;;5074521;28;20411;-59
2023/08/07 10:19:52;;;;;;;7.57;2.03;;;21.70;71.20;;;;;;5074544;28;20036;-59
2023/08/07 10:22:22;;;;;;;7.97;1.45;;;21.80;71.20;;;;;;5074160;28;20071;-61
2023/08/07 10:24:48;;;;;;;9.40;2.20;;;21.70;71.00;;;;;;5070363;28;20044;-58
2023/08/07 10:27:14;;;;;;;12.68;2.03;;;21.80;71.00;;;;;;5073868;28;20062;-62
2023/08/07 10:29:40;;;;;;;8.35;2.17;;;21.70;71.20;;;;;;5073529;28;20053;-62
2023/08/07 10:32:06;;;;;;;8.35;2.35;;;21.70;71.10;;;;;;5074351;28;20057;-62
2023/08/07 10:34:35;;;;;;;10.38;2.08;;;21.80;71.10;;;;;;5056760;28;20123;-62
2023/08/07 10:37:00;;;;;;;6.80;1.77;;;21.70;71.00;;;;;;5073572;28;20049;-62
2023/08/07 10:39:26;;;;;;;8.07;1.90;;;21.70;70.90;;;;;;5073588;28;20052;-62
2023/08/07 10:41:54;;;;;;;9.10;1.77;;;21.70;70.90;;;;;;5072760;28;20059;-62
2023/08/07 10:44:21;;;;;;;7.95;1.95;;;21.70;70.80;;;;;;5075090;28;20048;-62
2023/08/07 10:46:51;;;;;;;9.88;2.05;;;21.70;70.80;;;;;;5074184;28;20399;-62
2023/08/07 10:49:36;;;;;;;8.25;1.95;;;21.70;70.80;;;;;;5074322;28;20047;-62
2023/08/07 10:52:22;;;;;;;7.55;2.22;;;21.70;70.80;;;;;;5074824;28;20059;-62
2023/08/07 10:54:51;;;;;;;7.68;2.00;;;21.80;70.70;;;;;;5072072;28;20534;-64
2023/08/07 10:57:17;;;;;;;5.80;1.83;;;21.80;70.70;;;;;;5073401;28;20123;-62
2023/08/07 11:00:01;;;;;;;6.68;2.67;;;21.70;70.50;;;;;;5073638;28;20057;-64
2023/08/07 11:02:29;;;;;;;7.50;2.00;;;21.70;70.20;;;;;;5072059;28;20169;-63
2023/08/07 11:04:55;;;;;;;7.53;2.05;;;21.70;70.10;;;;;;5074323;28;20128;-63
2023/08/07 11:07:27;;;;;;;4.90;1.80;;;21.70;70.00;;;;;;5053203;28;20040;-63
2023/08/07 11:09:56;;;;;;;6.72;2.13;;;21.70;69.90;;;;;;5073517;28;20051;-63
2023/08/07 11:12:25;;;;;;;7.50;2.08;;;21.70;69.90;;;;;;5074134;28;20127;-64
2023/08/07 11:14:52;;;;;;;6.40;2.05;;;21.70;69.90;;;;;;5072662;28;20090;-61
2023/08/07 11:17:18;;;;;;;5.88;2.42;;;21.70;69.90;;;;;;5073411;28;20045;-63
2023/08/07 11:19:46;;;;;;;6.18;2.13;;;21.70;69.80;;;;;;5073715;28;20381;-64
2023/08/07 11:22:11;;;;;;;4.03;1.80;;;21.70;69.80;;;;;;5061662;28;20036;-65
2023/08/07 11:24:37;;;;;;;5.65;2.00;;;21.70;69.70;;;;;;5067918;28;20040;-63
2023/08/07 11:27:03;;;;;;;7.95;2.20;;;21.70;69.60;;;;;;5071767;28;20051;-63
2023/08/07 11:29:30;;;;;;;8.23;1.92;;;21.70;69.60;;;;;;5073813;28;20059;-63
2023/08/07 11:31:56;;;;;;;5.80;2.00;;;21.70;69.40;;;;;;5072239;28;20059;-62
2023/08/07 11:34:22;;;;;;;8.63;1.77;;;21.70;69.50;;;;;;5072409;28;20037;-62
2023/08/07 11:36:48;;;;;;;5.78;2.20;;;21.70;69.50;;;;;;5071593;28;20073;-63
2023/08/07 11:39:13;;;;;;;6.07;1.85;;;21.60;69.50;;;;;;5072926;28;20056;-62
2023/08/07 11:41:40;;;;;;;8.15;2.08;;;21.60;69.40;;;;;;5073262;28;20040;-63
2023/08/07 11:44:07;;;;;;;6.70;2.40;;;21.60;69.30;;;;;;5073981;28;20540;-63
2023/08/07 11:46:33;;;;;;;4.45;1.88;;;21.60;69.30;;;;;;5073189;28;20120;-62
2023/08/07 11:48:59;;;;;;;4.82;2.00;;;21.60;69.30;;;;;;5071589;28;20174;-63
2023/08/07 11:51:24;;;;;;;10.38;2.25;;;21.60;69.20;;;;;;5070650;28;20045;-62
2023/08/07 11:53:50;;;;;;;4.63;1.90;;;21.60;69.20;;;;;;5072372;28;20036;-62
2023/08/07 11:56:16;;;;;;;5.60;2.00;;;21.70;69.20;;;;;;5071972;28;20047;-63
2023/08/07 11:58:46;;;;;;;5.22;1.90;;;21.60;69.10;;;;;;5071955;28;20048;-62
2023/08/07 12:01:14;;;;;;;8.15;1.92;;;21.70;69.00;;;;;;5073175;28;20055;-62
2023/08/07 12:03:43;;;;;;;6.43;1.85;;;21.70;69.00;;;;;;5069729;28;20036;-62
2023/08/07 12:06:08;;;;;;;9.77;2.03;;;21.70;69.00;;;;;;5072440;28;20041;-63
2023/08/07 12:08:36;;;;;;;6.80;2.45;;;21.70;69.00;;;;;;5070452;28;20101;-62
2023/08/07 12:11:03;;;;;;;6.88;2.05;;;21.70;68.90;;;;;;5072059;28;20067;-62
2023/08/07 12:13:29;;;;;;;5.43;1.63;;;21.70;68.90;;;;;;5072410;28;20056;-62
2023/08/07 12:15:55;;;;;;;7.63;1.80;;;21.70;68.90;;;;;;5072869;28;20048;-62
2023/08/07 12:18:22;;;;;;;6.40;1.90;;;21.70;68.80;;;;;;5073249;28;20048;-62
2023/08/07 12:20:50;;;;;;;5.60;1.87;;;21.70;68.80;;;;;;5072247;28;20445;-62
2023/08/07 12:23:16;;;;;;;4.65;1.88;;;21.70;68.70;;;;;;5073064;28;20348;-62
2023/08/07 12:25:42;;;;;;;4.60;1.98;;;21.70;68.70;;;;;;5072769;28;20045;-62
2023/08/07 12:28:08;;;;;;;7.82;2.15;;;21.70;68.60;;;;;;5072303;28;20432;-62
2023/08/07 12:30:37;;;;;;;5.03;1.80;;;21.70;68.60;;;;;;5072758;28;20048;-63
2023/08/07 12:33:04;;;;;;;4.85;1.98;;;21.70;68.60;;;;;;5072593;28;20045;-62
2023/08/07 12:35:30;;;;;;;7.68;2.40;;;21.70;68.50;;;;;;5072143;28;20075;-62
2023/08/07 12:37:56;;;;;;;6.60;2.20;;;21.70;68.50;;;;;;5072588;28;20036;-62
2023/08/07 12:40:23;;;;;;;5.18;1.80;;;21.70;68.40;;;;;;5072916;28;20051;-62
2023/08/07 12:42:51;;;;;;;6.82;1.50;;;21.80;68.30;;;;;;5071688;28;20037;-62